Muson — UGLB — position and weather

sailwx.info

Track history (hours):
 
Tides and Currents Weather Stations Pressure Air Temp Water Temp Dewpoint Dewpoint Depression Visibility Wind Speed Wind Dir Waves Ship Positions

Muson

Last reported at 2015-Mar-02 06:33 UTC. Time now 2015-Mar-02 07:29 UTC.
Position N 59°55' E 030°14'.

Length 180 m; draft 4.6 m.

Type: Tug. MMSI: 273444990.

Date/timePositionNaut miles runAvg speedWind from/ knotsBaromVisibWave heightAir tempDewpointWater temp
2015-Mar-02 06:33N 59°55' E 030°14'0 0.0
2015-Mar-02 05:33N 59°55' E 030°14'0 0.0
2015-Mar-02 04:33N 59°55' E 030°14'0 0.0
2015-Mar-02 03:33N 59°55' E 030°14'0 0.0
2015-Mar-02 02:33N 59°55' E 030°14'2 0.3
2015-Mar-01 20:06N 59°53' E 030°11'2 0.5
2015-Mar-01 16:19N 59°55' E 030°14'0 0.0
2015-Mar-01 15:33N 59°55' E 030°14'0 0.0
2015-Mar-01 14:32N 59°55' E 030°14'0 0.0
2015-Mar-01 13:33N 59°55' E 030°14'0 0.0
2015-Mar-01 12:33N 59°55' E 030°14'0 0.0
2015-Mar-01 11:31N 59°55' E 030°14'0 0.0
2015-Mar-01 10:29N 59°55' E 030°14'0 0.0
2015-Mar-01 09:29N 59°55' E 030°14'0 0.0
2015-Mar-01 08:34N 59°55' E 030°14'0 0.0
2015-Mar-01 07:30N 59°55' E 030°14'1 1.5
2015-Mar-01 06:33N 59°55' E 030°16'1 1.3
2015-Mar-01 05:28N 59°55' E 030°14'0 0.0
2015-Feb-28 22:23N 59°55' E 030°14'0 0.0
2015-Feb-28 21:33N 59°55' E 030°14'0 0.0
2015-Feb-28 20:20N 59°55' E 030°14'0 0.0
2015-Feb-28 19:27N 59°55' E 030°14'0 0.0
2015-Feb-28 18:32N 59°55' E 030°14'0 0.0
2015-Feb-28 12:07N 59°55' E 030°14'0 0.0
2015-Feb-28 06:13N 59°55' E 030°14'0 0.0
2015-Feb-28 05:32N 59°55' E 030°14'0 0.0
2015-Feb-28 04:33N 59°55' E 030°14'0 0.0
2015-Feb-27 11:29N 59°55' E 030°14'0 0.0
2015-Feb-27 10:33N 59°55' E 030°14'0 0.0
2015-Feb-27 09:33N 59°55' E 030°14'0 0.0
2015-Feb-27 08:33N 59°55' E 030°14'0 0.0
2015-Feb-27 07:33N 59°55' E 030°14'0 0.0
2015-Feb-27 06:33N 59°55' E 030°14'0 0.0
2015-Feb-27 05:33N 59°55' E 030°14'0 0.0
2015-Feb-27 04:33N 59°55' E 030°14'0 0.0
2015-Feb-27 03:32N 59°55' E 030°14'0 0.0
2015-Feb-27 02:32N 59°55' E 030°14'0 0.0
2015-Feb-27 01:30N 59°55' E 030°14'0 0.0
2015-Feb-27 00:32N 59°55' E 030°14'0 0.0
2015-Feb-26 23:17N 59°55' E 030°14'0 0.0
2015-Feb-26 22:32N 59°55' E 030°14'0 0.0
2015-Feb-26 21:30N 59°55' E 030°14'0 0.0
2015-Feb-26 20:31N 59°55' E 030°14'0 0.0
2015-Feb-26 19:31N 59°55' E 030°14'0 0.0
2015-Feb-26 18:33N 59°55' E 030°14'0 0.0
2015-Feb-26 17:33N 59°55' E 030°14'0 0.0
2015-Feb-26 16:33N 59°55' E 030°14'0 0.0
2015-Feb-26 15:33N 59°55' E 030°14'0 0.0
2015-Feb-26 14:33N 59°55' E 030°14'0 0.0
2015-Feb-26 13:32N 59°55' E 030°14'0 0.0
2015-Feb-26 11:08N 59°55' E 030°14'0 0.0
2015-Feb-26 09:32N 59°55' E 030°14'0 0.0
2015-Feb-26 08:23N 59°55' E 030°14'0 0.0
2015-Feb-26 06:33N 59°55' E 030°14'0 0.0
2015-Feb-26 05:29N 59°55' E 030°14'0 0.0
2015-Feb-25 20:18N 59°55' E 030°14'0 0.0
2015-Feb-25 19:32N 59°55' E 030°14'0 0.0
2015-Feb-25 08:25N 59°55' E 030°14'3 0.2
2015-Feb-24 20:09N 59°54' E 030°08'2 1.7
2015-Feb-24 19:13N 59°53' E 030°11'2 2.9
2015-Feb-24 18:32N 59°55' E 030°14'0 0.0
2015-Feb-24 08:32N 59°55' E 030°14'0 0.0
2015-Feb-24 07:11N 59°55' E 030°14'0 0.0
2015-Feb-24 04:33N 59°55' E 030°14'0 0.0
2015-Feb-24 02:28N 59°55' E 030°14'0 0.0
2015-Feb-24 01:33N 59°55' E 030°14'0 0.0
2015-Feb-24 00:32N 59°55' E 030°14'0 0.0
2015-Feb-23 22:33N 59°55' E 030°14'0 0.0
2015-Feb-23 21:17N 59°55' E 030°14'0 0.0
2015-Feb-23 20:11N 59°55' E 030°14'0 0.0
2015-Feb-23 19:28N 59°55' E 030°14'0 0.0
2015-Feb-23 17:24N 59°55' E 030°14'0 0.0
2015-Feb-23 16:32N 59°55' E 030°14'0 0.0
2015-Feb-23 15:33N 59°55' E 030°14'0 0.0
2015-Feb-23 14:32N 59°55' E 030°14'0 0.0
2015-Feb-23 13:33N 59°55' E 030°14'0 0.0
2015-Feb-23 12:33N 59°55' E 030°14'0 0.0
2015-Feb-23 11:33N 59°55' E 030°14'0 0.0
2015-Feb-23 10:32N 59°55' E 030°14'2 0.1
2015-Feb-22 16:33N 59°53' E 030°12'2 0.3
2015-Feb-22 11:04N 59°55' E 030°14'0 0.0
2015-Feb-22 10:29N 59°55' E 030°14'0 0.0
2015-Feb-22 07:32N 59°55' E 030°14'0 0.0
2015-Feb-22 06:28N 59°55' E 030°14'0 0.0
2015-Feb-22 05:27N 59°55' E 030°14'0 0.0
2015-Feb-22 04:30N 59°55' E 030°14'0 0.0
2015-Feb-22 03:33N 59°55' E 030°14'0 0.0
2015-Feb-21 21:15N 59°55' E 030°14'0 0.0
2015-Feb-21 20:07N 59°55' E 030°14'0 0.0
2015-Feb-21 19:32N 59°55' E 030°14'0 0.0
2015-Feb-21 18:30N 59°55' E 030°14'0 0.0
2015-Feb-21 15:29N 59°55' E 030°14'0 0.0
2015-Feb-21 11:29N 59°55' E 030°14'0 0.0
2015-Feb-21 06:30N 59°55' E 030°14'0 0.0
2015-Feb-21 05:30N 59°55' E 030°14'0 0.0
2015-Feb-21 04:33N 59°55' E 030°14'0 0.0
2015-Feb-21 03:33N 59°55' E 030°14'0 0.0
2015-Feb-21 02:32N 59°55' E 030°14'0 0.0
2015-Feb-21 01:32N 59°55' E 030°14'0 0.0
2015-Feb-21 00:32N 59°55' E 030°14'0 0.0
2015-Feb-20 23:33N 59°55' E 030°14'0 0.0
2015-Feb-20 22:32N 59°55' E 030°14'0 0.0
2015-Feb-20 21:33N 59°55' E 030°14'0 0.0
2015-Feb-20 20:33N 59°55' E 030°14'0 0.0
2015-Feb-20 19:33N 59°55' E 030°14'0 0.0
2015-Feb-20 18:32N 59°55' E 030°14'0 0.0
2015-Feb-20 17:32N 59°55' E 030°14'0 0.0
2015-Feb-20 16:33N 59°55' E 030°14'0 0.0
2015-Feb-20 15:33N 59°55' E 030°14'0 0.0
2015-Feb-20 14:33N 59°55' E 030°14'0 0.0
2015-Feb-20 13:33N 59°55' E 030°14'0 0.0
2015-Feb-20 12:32N 59°55' E 030°14'0 0.0
2015-Feb-20 09:27N 59°55' E 030°14'0 0.0
2015-Feb-20 08:19N 59°55' E 030°14'  
Track history (hours):
 
Tides and Currents Weather Stations Pressure Air Temp Water Temp Dewpoint Dewpoint Depression Visibility Wind Speed Wind Dir Waves Ship Positions

Muson

Last reported at 2015-Mar-02 06:33 UTC. Time now 2015-Mar-02 07:29 UTC.
Position N 59°55' E 030°14'.

Length 180 m; draft 4.6 m.

Type: Tug. MMSI: 273444990.

Date/timePositionNaut miles runAvg speedWind from/ knotsBaromVisibWave heightAir tempDewpointWater temp
2015-Mar-02 06:33N 59°55' E 030°14'0 0.0
2015-Mar-02 05:33N 59°55' E 030°14'0 0.0
2015-Mar-02 04:33N 59°55' E 030°14'0 0.0
2015-Mar-02 03:33N 59°55' E 030°14'0 0.0
2015-Mar-02 02:33N 59°55' E 030°14'2 0.3
2015-Mar-01 20:06N 59°53' E 030°11'2 0.5
2015-Mar-01 16:19N 59°55' E 030°14'0 0.0
2015-Mar-01 15:33N 59°55' E 030°14'0 0.0
2015-Mar-01 14:32N 59°55' E 030°14'0 0.0
2015-Mar-01 13:33N 59°55' E 030°14'0 0.0
2015-Mar-01 12:33N 59°55' E 030°14'0 0.0
2015-Mar-01 11:31N 59°55' E 030°14'0 0.0
2015-Mar-01 10:29N 59°55' E 030°14'0 0.0
2015-Mar-01 09:29N 59°55' E 030°14'0 0.0
2015-Mar-01 08:34N 59°55' E 030°14'0 0.0
2015-Mar-01 07:30N 59°55' E 030°14'1 1.5
2015-Mar-01 06:33N 59°55' E 030°16'1 1.3
2015-Mar-01 05:28N 59°55' E 030°14'0 0.0
2015-Feb-28 22:23N 59°55' E 030°14'0 0.0
2015-Feb-28 21:33N 59°55' E 030°14'0 0.0
2015-Feb-28 20:20N 59°55' E 030°14'0 0.0
2015-Feb-28 19:27N 59°55' E 030°14'0 0.0
2015-Feb-28 18:32N 59°55' E 030°14'0 0.0
2015-Feb-28 12:07N 59°55' E 030°14'0 0.0
2015-Feb-28 06:13N 59°55' E 030°14'0 0.0
2015-Feb-28 05:32N 59°55' E 030°14'0 0.0
2015-Feb-28 04:33N 59°55' E 030°14'0 0.0
2015-Feb-27 11:29N 59°55' E 030°14'0 0.0
2015-Feb-27 10:33N 59°55' E 030°14'0 0.0
2015-Feb-27 09:33N 59°55' E 030°14'0 0.0
2015-Feb-27 08:33N 59°55' E 030°14'0 0.0
2015-Feb-27 07:33N 59°55' E 030°14'0 0.0
2015-Feb-27 06:33N 59°55' E 030°14'0 0.0
2015-Feb-27 05:33N 59°55' E 030°14'0 0.0
2015-Feb-27 04:33N 59°55' E 030°14'0 0.0
2015-Feb-27 03:32N 59°55' E 030°14'0 0.0
2015-Feb-27 02:32N 59°55' E 030°14'0 0.0
2015-Feb-27 01:30N 59°55' E 030°14'0 0.0
2015-Feb-27 00:32N 59°55' E 030°14'0 0.0
2015-Feb-26 23:17N 59°55' E 030°14'0 0.0
2015-Feb-26 22:32N 59°55' E 030°14'0 0.0
2015-Feb-26 21:30N 59°55' E 030°14'0 0.0
2015-Feb-26 20:31N 59°55' E 030°14'0 0.0
2015-Feb-26 19:31N 59°55' E 030°14'0 0.0
2015-Feb-26 18:33N 59°55' E 030°14'0 0.0
2015-Feb-26 17:33N 59°55' E 030°14'0 0.0
2015-Feb-26 16:33N 59°55' E 030°14'0 0.0
2015-Feb-26 15:33N 59°55' E 030°14'0 0.0
2015-Feb-26 14:33N 59°55' E 030°14'0 0.0
2015-Feb-26 13:32N 59°55' E 030°14'0 0.0
2015-Feb-26 11:08N 59°55' E 030°14'0 0.0
2015-Feb-26 09:32N 59°55' E 030°14'0 0.0
2015-Feb-26 08:23N 59°55' E 030°14'0 0.0
2015-Feb-26 06:33N 59°55' E 030°14'0 0.0
2015-Feb-26 05:29N 59°55' E 030°14'0 0.0
2015-Feb-25 20:18N 59°55' E 030°14'0 0.0
2015-Feb-25 19:32N 59°55' E 030°14'0 0.0
2015-Feb-25 08:25N 59°55' E 030°14'3 0.2
2015-Feb-24 20:09N 59°54' E 030°08'2 1.7
2015-Feb-24 19:13N 59°53' E 030°11'2 2.9
2015-Feb-24 18:32N 59°55' E 030°14'0 0.0
2015-Feb-24 08:32N 59°55' E 030°14'0 0.0
2015-Feb-24 07:11N 59°55' E 030°14'0 0.0
2015-Feb-24 04:33N 59°55' E 030°14'0 0.0
2015-Feb-24 02:28N 59°55' E 030°14'0 0.0
2015-Feb-24 01:33N 59°55' E 030°14'0 0.0
2015-Feb-24 00:32N 59°55' E 030°14'0 0.0
2015-Feb-23 22:33N 59°55' E 030°14'0 0.0
2015-Feb-23 21:17N 59°55' E 030°14'0 0.0
2015-Feb-23 20:11N 59°55' E 030°14'0 0.0
2015-Feb-23 19:28N 59°55' E 030°14'0 0.0
2015-Feb-23 17:24N 59°55' E 030°14'0 0.0
2015-Feb-23 16:32N 59°55' E 030°14'0 0.0
2015-Feb-23 15:33N 59°55' E 030°14'0 0.0
2015-Feb-23 14:32N 59°55' E 030°14'0 0.0
2015-Feb-23 13:33N 59°55' E 030°14'0 0.0
2015-Feb-23 12:33N 59°55' E 030°14'0 0.0
2015-Feb-23 11:33N 59°55' E 030°14'0 0.0
2015-Feb-23 10:32N 59°55' E 030°14'2 0.1
2015-Feb-22 16:33N 59°53' E 030°12'2 0.3
2015-Feb-22 11:04N 59°55' E 030°14'0 0.0
2015-Feb-22 10:29N 59°55' E 030°14'0 0.0
2015-Feb-22 07:32N 59°55' E 030°14'0 0.0
2015-Feb-22 06:28N 59°55' E 030°14'0 0.0
2015-Feb-22 05:27N 59°55' E 030°14'0 0.0
2015-Feb-22 04:30N 59°55' E 030°14'0 0.0
2015-Feb-22 03:33N 59°55' E 030°14'0 0.0
2015-Feb-21 21:15N 59°55' E 030°14'0 0.0
2015-Feb-21 20:07N 59°55' E 030°14'0 0.0
2015-Feb-21 19:32N 59°55' E 030°14'0 0.0
2015-Feb-21 18:30N 59°55' E 030°14'0 0.0
2015-Feb-21 15:29N 59°55' E 030°14'0 0.0
2015-Feb-21 11:29N 59°55' E 030°14'0 0.0
2015-Feb-21 06:30N 59°55' E 030°14'0 0.0
2015-Feb-21 05:30N 59°55' E 030°14'0 0.0
2015-Feb-21 04:33N 59°55' E 030°14'0 0.0
2015-Feb-21 03:33N 59°55' E 030°14'0 0.0
2015-Feb-21 02:32N 59°55' E 030°14'0 0.0
2015-Feb-21 01:32N 59°55' E 030°14'0 0.0
2015-Feb-21 00:32N 59°55' E 030°14'0 0.0
2015-Feb-20 23:33N 59°55' E 030°14'0 0.0
2015-Feb-20 22:32N 59°55' E 030°14'0 0.0
2015-Feb-20 21:33N 59°55' E 030°14'0 0.0
2015-Feb-20 20:33N 59°55' E 030°14'0 0.0
2015-Feb-20 19:33N 59°55' E 030°14'0 0.0
2015-Feb-20 18:32N 59°55' E 030°14'0 0.0
2015-Feb-20 17:32N 59°55' E 030°14'0 0.0
2015-Feb-20 16:33N 59°55' E 030°14'0 0.0
2015-Feb-20 15:33N 59°55' E 030°14'0 0.0
2015-Feb-20 14:33N 59°55' E 030°14'0 0.0
2015-Feb-20 13:33N 59°55' E 030°14'0 0.0
2015-Feb-20 12:32N 59°55' E 030°14'0 0.0
2015-Feb-20 09:27N 59°55' E 030°14'0 0.0
2015-Feb-20 08:19N 59°55' E 030°14'  

Dump ship's entire track history